createdAt,value
2018-07-25T00:01:42.424Z,9.67
2018-07-25T00:04:12.667Z,11.43
2018-07-25T00:06:41.847Z,9.43
2018-07-25T00:09:11.911Z,8.67
2018-07-25T00:11:41.048Z,9.20
2018-07-25T00:14:10.482Z,9.73
2018-07-25T00:16:40.881Z,9.57
2018-07-25T00:19:10.150Z,9.53
2018-07-25T00:21:39.376Z,11.12
2018-07-25T00:24:08.885Z,9.10
2018-07-25T00:26:38.104Z,12.80
2018-07-25T00:29:07.424Z,9.95
2018-07-25T00:31:36.624Z,10.63
2018-07-25T00:34:05.908Z,9.90
2018-07-25T00:36:35.033Z,13.17
2018-07-25T00:39:08.258Z,11.43
2018-07-25T00:41:37.573Z,11.33
2018-07-25T00:44:06.807Z,9.93
2018-07-25T00:46:38.967Z,10.05
2018-07-25T00:49:08.931Z,9.93
2018-07-25T00:51:38.021Z,9.90
2018-07-25T00:54:14.637Z,12.80
2018-07-25T00:56:43.739Z,10.53
2018-07-25T00:59:13.485Z,10.93
2018-07-25T01:01:44.354Z,11.60
2018-07-25T01:04:16.848Z,10.17
2018-07-25T01:06:46.984Z,9.57
2018-07-25T01:09:18.692Z,10.07
2018-07-25T01:11:56.963Z,11.00
2018-07-25T01:14:27.696Z,11.22
2018-07-25T01:16:56.814Z,11.15
2018-07-25T01:19:28.865Z,12.53
2018-07-25T01:21:57.945Z,11.30
2018-07-25T01:24:27.043Z,12.30
2018-07-25T01:26:58.142Z,11.13
2018-07-25T01:29:29.491Z,11.83
2018-07-25T01:32:00.706Z,11.73
2018-07-25T01:34:29.845Z,12.77
2018-07-25T01:36:59.038Z,12.93
2018-07-25T01:39:28.132Z,12.87
2018-07-25T01:42:07.464Z,11.17
2018-07-25T01:44:39.442Z,10.30
2018-07-25T01:47:08.703Z,10.80
2018-07-25T01:49:37.897Z,11.77
2018-07-25T01:52:07.506Z,13.30
2018-07-25T01:54:36.728Z,14.68
2018-07-25T01:57:06.492Z,11.80
2018-07-25T01:59:35.678Z,11.83
2018-07-25T02:02:04.793Z,10.90
2018-07-25T02:04:33.909Z,11.40
2018-07-25T02:07:05.050Z,11.63
2018-07-25T02:09:34.135Z,13.27
2018-07-25T02:12:03.162Z,11.60
2018-07-25T02:14:32.226Z,14.15
2018-07-25T02:17:01.317Z,14.07
2018-07-25T02:19:30.381Z,12.87
2018-07-25T02:21:59.448Z,14.37
2018-07-25T02:24:32.165Z,14.13
2018-07-25T02:27:01.583Z,13.10
2018-07-25T02:29:30.775Z,12.10
2018-07-25T02:31:59.881Z,12.27
2018-07-25T02:34:28.974Z,12.40
2018-07-25T02:36:58.100Z,13.27
2018-07-25T02:39:27.244Z,11.83
2018-07-25T02:41:56.312Z,12.70
2018-07-25T02:44:28.025Z,13.32
2018-07-25T02:47:06.018Z,12.70
2018-07-25T02:49:38.472Z,11.88
2018-07-25T02:52:08.374Z,13.70
2018-07-25T02:54:39.610Z,13.65
2018-07-25T02:57:09.618Z,13.00
2018-07-25T02:59:38.940Z,13.62
2018-07-25T03:02:10.595Z,12.57
2018-07-25T03:04:41.572Z,12.70
2018-07-25T03:07:13.029Z,12.77
2018-07-25T03:09:42.572Z,14.07
2018-07-25T03:12:13.397Z,14.00
2018-07-25T03:14:44.985Z,13.70
2018-07-25T03:17:14.143Z,14.43
2018-07-25T03:19:44.174Z,13.53
2018-07-25T03:22:17.562Z,17.47
2018-07-25T03:24:46.928Z,14.00
2018-07-25T03:27:17.545Z,13.63
2018-07-25T03:29:48.209Z,13.97
2018-07-25T03:32:20.611Z,14.63
2018-07-25T03:34:50.216Z,14.13
2018-07-25T03:37:20.173Z,15.43
2018-07-25T03:39:52.739Z,14.00
2018-07-25T03:42:22.069Z,15.13
2018-07-25T03:44:51.306Z,14.87
2018-07-25T03:47:20.528Z,17.20
2018-07-25T03:49:51.117Z,17.07
2018-07-25T03:52:22.758Z,15.43
2018-07-25T03:54:57.970Z,13.58
2018-07-25T03:57:27.625Z,13.67
2018-07-25T04:00:04.393Z,14.17
2018-07-25T04:02:34.786Z,14.73
2018-07-25T04:05:03.971Z,14.67
2018-07-25T04:07:33.363Z,15.63
2018-07-25T04:10:05.090Z,15.30
2018-07-25T04:12:35.301Z,15.33
2018-07-25T04:15:07.730Z,14.67
2018-07-25T04:17:47.032Z,13.43
2018-07-25T04:20:18.321Z,26.07
2018-07-25T04:22:48.125Z,15.93
2018-07-25T04:25:20.886Z,14.00
2018-07-25T04:27:52.263Z,16.43
2018-07-25T04:30:22.641Z,13.57
2018-07-25T04:32:54.977Z,13.57
2018-07-25T04:35:24.243Z,14.80
2018-07-25T04:37:53.841Z,14.10
2018-07-25T04:40:26.343Z,14.97
2018-07-25T04:42:55.552Z,17.37
2018-07-25T04:45:27.028Z,14.03
2018-07-25T04:47:57.858Z,14.23
2018-07-25T04:50:30.210Z,13.27
2018-07-25T04:53:04.840Z,14.50
2018-07-25T04:55:38.651Z,12.15
2018-07-25T04:58:08.962Z,15.67
2018-07-25T05:00:40.132Z,13.13
2018-07-25T05:03:09.982Z,13.47
2018-07-25T05:05:42.879Z,13.40
2018-07-25T05:08:12.144Z,14.67
2018-07-25T05:10:41.345Z,15.32
2018-07-25T05:13:10.672Z,14.03
2018-07-25T05:15:39.932Z,13.32
2018-07-25T05:18:09.253Z,13.93
2018-07-25T05:20:39.101Z,13.33
2018-07-25T05:23:08.373Z,13.87
2018-07-25T05:25:37.593Z,14.23
2018-07-25T05:28:06.864Z,13.15
2018-07-25T05:30:36.143Z,13.17
2018-07-25T05:33:06.192Z,13.90
2018-07-25T05:35:35.492Z,13.47
2018-07-25T05:38:05.084Z,12.37
2018-07-25T05:40:34.260Z,13.85
2018-07-25T05:43:03.523Z,13.62
2018-07-25T05:45:33.783Z,13.55
2018-07-25T05:48:07.703Z,13.15
2018-07-25T05:50:38.020Z,12.76
2018-07-25T05:53:08.500Z,14.33
2018-07-25T05:55:37.771Z,13.13
2018-07-25T05:58:07.043Z,14.68
2018-07-25T06:00:36.294Z,14.13
2018-07-25T06:03:06.066Z,12.53
2018-07-25T06:05:36.005Z,12.40
2018-07-25T06:08:05.759Z,11.70
2018-07-25T06:10:34.927Z,11.55
2018-07-25T06:13:04.552Z,12.98
2018-07-25T06:15:34.078Z,13.55
2018-07-25T06:18:03.496Z,12.50
2018-07-25T06:20:32.624Z,12.93
2018-07-25T06:23:03.593Z,13.93
2018-07-25T06:25:32.710Z,13.98
2018-07-25T06:28:01.865Z,16.87
2018-07-25T06:30:31.036Z,14.53
2018-07-25T06:33:00.211Z,13.18
2018-07-25T06:35:29.304Z,13.70
2018-07-25T06:37:58.570Z,14.53
2018-07-25T06:40:27.751Z,15.43
2018-07-25T06:42:56.846Z,13.85
2018-07-25T06:45:26.146Z,13.38
2018-07-25T06:47:55.332Z,12.75
2018-07-25T06:50:24.475Z,11.85
2018-07-25T06:52:53.714Z,13.38
2018-07-25T06:55:23.265Z,12.65
2018-07-25T06:57:54.136Z,13.07
2018-07-25T07:00:23.360Z,13.70
2018-07-25T07:02:52.572Z,13.20
2018-07-25T07:05:23.847Z,12.47
2018-07-25T07:07:53.251Z,13.50
2018-07-25T07:10:22.520Z,12.60
2018-07-25T07:12:53.000Z,14.25
2018-07-25T07:15:22.355Z,13.72
2018-07-25T07:17:51.396Z,13.15
2018-07-25T07:20:20.595Z,14.00
2018-07-25T07:22:50.120Z,14.50
2018-07-25T07:25:19.773Z,17.60
2018-07-25T07:27:49.085Z,14.63
2018-07-25T07:30:18.355Z,14.20
2018-07-25T07:32:48.392Z,15.28
2018-07-25T07:35:18.109Z,14.55
2018-07-25T07:37:47.656Z,14.63
2018-07-25T07:40:17.417Z,13.53
2018-07-25T07:42:49.842Z,14.03
2018-07-25T07:45:20.167Z,12.37
2018-07-25T07:47:49.578Z,12.87
2018-07-25T07:50:18.819Z,12.28
2018-07-25T07:52:50.364Z,13.88
2018-07-25T07:55:19.759Z,11.53
2018-07-25T07:57:48.984Z,12.63
2018-07-25T08:00:22.220Z,12.03
2018-07-25T08:02:51.457Z,13.10
2018-07-25T08:05:20.662Z,14.53
2018-07-25T08:07:49.732Z,13.30
2018-07-25T08:10:19.147Z,12.03
2018-07-25T08:12:48.356Z,16.20
2018-07-25T08:15:17.865Z,12.80
2018-07-25T08:17:47.273Z,12.95
2018-07-25T08:20:16.471Z,12.50
2018-07-25T08:22:46.146Z,13.30
2018-07-25T08:25:15.594Z,13.58
2018-07-25T08:27:45.884Z,12.58
2018-07-25T08:30:15.297Z,12.68
2018-07-25T08:32:44.522Z,13.33
2018-07-25T08:35:13.992Z,12.93
2018-07-25T08:37:43.368Z,13.10
2018-07-25T08:40:12.622Z,13.98
2018-07-25T08:42:41.828Z,13.35
2018-07-25T08:45:11.652Z,12.53
2018-07-25T08:47:43.110Z,12.80
2018-07-25T08:50:12.676Z,13.28
2018-07-25T08:52:42.215Z,14.33
2018-07-25T08:55:11.542Z,13.75
2018-07-25T08:57:40.563Z,14.18
2018-07-25T09:00:09.977Z,15.68
2018-07-25T09:02:40.692Z,14.70
2018-07-25T09:05:10.001Z,16.80
2018-07-25T09:07:40.231Z,15.93
2018-07-25T09:10:11.661Z,15.65
2018-07-25T09:12:41.014Z,15.78
2018-07-25T09:15:11.311Z,17.00
2018-07-25T09:17:40.696Z,16.57
2018-07-25T09:20:10.062Z,16.42
2018-07-25T09:22:40.292Z,17.85
2018-07-25T09:25:09.427Z,15.13
2018-07-25T09:27:39.374Z,17.12
2018-07-25T09:30:09.283Z,16.27
2018-07-25T09:32:38.411Z,15.27
2018-07-25T09:35:07.716Z,15.95
2018-07-25T09:37:37.457Z,16.10
2018-07-25T09:40:06.862Z,17.67
2018-07-25T09:42:36.019Z,18.57
2018-07-25T09:45:07.611Z,15.83
2018-07-25T09:47:37.285Z,15.80
2018-07-25T09:50:09.622Z,17.60
2018-07-25T09:52:40.116Z,15.60
2018-07-25T09:55:10.456Z,16.85
2018-07-25T09:57:39.708Z,18.35
2018-07-25T10:00:12.471Z,16.77
2018-07-25T10:02:42.773Z,17.37
2018-07-25T10:05:14.461Z,17.32
2018-07-25T10:07:44.600Z,18.12
2018-07-25T10:10:15.539Z,15.68
2018-07-25T10:12:46.704Z,15.85
2018-07-25T10:15:17.027Z,14.58
2018-07-25T10:17:47.716Z,17.15
2018-07-25T10:20:23.553Z,16.43
2018-07-25T10:22:55.863Z,15.10
2018-07-25T10:25:25.803Z,15.90
2018-07-25T10:27:55.332Z,15.18
2018-07-25T10:30:24.862Z,13.68
2018-07-25T10:32:54.281Z,14.00
2018-07-25T10:35:23.402Z,14.47
2018-07-25T10:37:52.694Z,13.55
2018-07-25T10:40:25.273Z,14.95
2018-07-25T10:42:55.053Z,12.82
2018-07-25T10:45:24.630Z,13.97
2018-07-25T10:47:53.716Z,12.07
2018-07-25T10:50:23.272Z,12.30
2018-07-25T10:52:52.488Z,12.68
2018-07-25T10:55:22.066Z,12.35
2018-07-25T10:57:51.781Z,17.27
2018-07-25T11:00:22.817Z,10.65
2018-07-25T11:02:54.837Z,11.63
2018-07-25T11:05:24.349Z,9.85
2018-07-25T11:07:55.272Z,8.28
2018-07-25T11:10:26.963Z,9.43
2018-07-25T11:12:58.102Z,10.15
2018-07-25T11:15:28.338Z,8.80
2018-07-25T11:17:57.851Z,9.33
2018-07-25T11:20:27.203Z,10.17
2018-07-25T11:22:56.623Z,8.35
2018-07-25T11:25:26.877Z,9.28
2018-07-25T11:27:57.872Z,8.80
2018-07-25T11:30:27.931Z,7.58
2018-07-25T11:32:57.481Z,9.73
2018-07-25T11:35:26.874Z,8.85
2018-07-25T11:37:56.169Z,8.50
2018-07-25T11:40:25.271Z,9.00
2018-07-25T11:42:54.381Z,10.53
2018-07-25T11:45:25.818Z,8.43
2018-07-25T11:47:57.599Z,8.03
2018-07-25T11:50:26.934Z,8.03
2018-07-25T11:52:57.431Z,9.85
2018-07-25T11:55:28.463Z,9.75
2018-07-25T11:57:57.965Z,6.87
2018-07-25T12:00:27.249Z,7.33
2018-07-25T12:02:56.722Z,10.65
2018-07-25T12:05:28.035Z,7.53
2018-07-25T12:07:59.000Z,7.60
2018-07-25T12:10:28.975Z,7.50
2018-07-25T12:12:59.639Z,7.58
2018-07-25T12:15:29.834Z,7.62
2018-07-25T12:17:59.250Z,7.70
2018-07-25T12:20:29.979Z,8.65
2018-07-25T12:22:59.173Z,7.83
2018-07-25T12:25:28.352Z,7.53
2018-07-25T12:27:57.783Z,9.55
2018-07-25T12:30:27.487Z,9.43
2018-07-25T12:32:58.014Z,7.80
2018-07-25T12:35:28.209Z,8.03
2018-07-25T12:37:57.662Z,8.13
2018-07-25T12:40:30.187Z,8.38
2018-07-25T12:43:01.995Z,7.08
2018-07-25T12:45:31.894Z,7.05
2018-07-25T12:48:01.772Z,8.83
2018-07-25T12:50:31.845Z,7.50
2018-07-25T12:53:03.951Z,7.40
2018-07-25T12:55:33.725Z,14.03
2018-07-25T12:58:03.701Z,7.10
2018-07-25T13:00:35.406Z,8.70
2018-07-25T13:03:05.052Z,7.25
2018-07-25T13:05:34.531Z,10.53
2018-07-25T13:08:04.183Z,7.30
2018-07-25T13:10:33.663Z,8.05
2018-07-25T13:13:02.919Z,7.07
2018-07-25T13:15:35.407Z,6.90
2018-07-25T13:18:04.892Z,6.75
2018-07-25T13:20:36.384Z,8.46
2018-07-25T13:23:12.662Z,6.78
2018-07-25T13:25:44.095Z,9.77
2018-07-25T13:28:13.775Z,7.07
2018-07-25T13:30:44.411Z,7.25
2018-07-25T13:33:14.622Z,6.67
2018-07-25T13:35:45.606Z,9.50
2018-07-25T13:38:15.480Z,6.80
2018-07-25T13:40:47.349Z,7.47
2018-07-25T13:43:16.711Z,7.00
2018-07-25T13:45:45.886Z,8.53
2018-07-25T13:48:15.173Z,7.17
2018-07-25T13:50:45.501Z,6.60
2018-07-25T13:53:14.744Z,6.45
2018-07-25T13:55:43.968Z,6.80
2018-07-25T13:58:13.254Z,15.32
2018-07-25T14:00:42.678Z,6.80
2018-07-25T14:03:11.974Z,7.00
2018-07-25T14:05:41.329Z,11.53
2018-07-25T14:08:10.443Z,9.40
2018-07-25T14:10:39.997Z,6.57
2018-07-25T14:13:09.896Z,7.97
2018-07-25T14:15:39.264Z,6.50
2018-07-25T14:18:09.056Z,7.00
2018-07-25T14:20:38.016Z,10.68
2018-07-25T14:23:07.223Z,6.80
2018-07-25T14:25:36.290Z,7.97
2018-07-25T14:28:05.585Z,7.42
2018-07-25T14:30:34.844Z,7.05
2018-07-25T14:33:04.026Z,6.92
2018-07-25T14:35:33.688Z,7.53
2018-07-25T14:38:03.456Z,7.60
2018-07-25T14:40:34.736Z,8.76
2018-07-25T14:43:04.150Z,7.70
2018-07-25T14:45:33.365Z,7.22
2018-07-25T14:48:02.581Z,7.42
2018-07-25T14:50:31.979Z,9.33
2018-07-25T14:53:01.210Z,7.60
2018-07-25T14:55:30.467Z,6.65
2018-07-25T14:58:02.598Z,10.87
2018-07-25T15:00:31.984Z,7.97
2018-07-25T15:03:01.453Z,6.80
2018-07-25T15:05:30.708Z,7.00
2018-07-25T15:08:02.350Z,7.40
2018-07-25T15:10:31.722Z,7.03
2018-07-25T15:13:01.769Z,7.50
2018-07-25T15:15:31.620Z,8.03
2018-07-25T15:18:01.173Z,9.18
2018-07-25T15:20:31.110Z,10.38
2018-07-25T15:23:01.662Z,7.45
2018-07-25T15:25:33.356Z,7.37
2018-07-25T15:28:04.029Z,7.45
2018-07-25T15:30:36.043Z,6.92
2018-07-25T15:33:05.574Z,7.05
2018-07-25T15:35:34.842Z,6.78
2018-07-25T15:38:03.977Z,6.83
2018-07-25T15:40:34.537Z,7.80
2018-07-25T15:43:03.812Z,7.08
2018-07-25T15:45:40.058Z,10.32
2018-07-25T15:48:09.720Z,9.37
2018-07-25T15:50:39.074Z,7.53
2018-07-25T15:53:08.527Z,7.22
2018-07-25T15:55:39.030Z,8.22
2018-07-25T15:58:08.856Z,10.94
2018-07-25T16:00:38.942Z,7.20
2018-07-25T16:03:08.267Z,7.42
2018-07-25T16:05:38.058Z,7.45
2018-07-25T16:08:07.531Z,7.65
2018-07-25T16:10:36.863Z,7.40
2018-07-25T16:13:06.604Z,11.30
2018-07-25T16:15:36.065Z,7.33
2018-07-25T16:18:05.434Z,7.62
2018-07-25T16:20:37.216Z,8.23
2018-07-25T16:23:06.645Z,8.10
2018-07-25T16:25:35.884Z,9.45
2018-07-25T16:28:06.419Z,11.48
2018-07-25T16:30:35.766Z,8.30
2018-07-25T16:33:05.176Z,9.00
2018-07-25T16:35:48.826Z,8.10
2018-07-25T16:38:18.370Z,7.80
2018-07-25T16:40:48.200Z,7.97
2018-07-25T16:43:18.360Z,8.43
2018-07-25T16:45:48.626Z,7.67
2018-07-25T16:48:18.361Z,7.90
2018-07-25T16:50:48.081Z,8.20
2018-07-25T16:53:19.377Z,9.03
2018-07-25T16:55:49.671Z,8.90
2018-07-25T16:58:20.660Z,10.77
2018-07-25T17:00:50.233Z,9.88
2018-07-25T17:03:19.357Z,8.57
2018-07-25T17:05:48.417Z,11.03
2018-07-25T17:08:18.011Z,10.13
2018-07-25T17:10:47.268Z,9.68
2018-07-25T17:13:18.223Z,9.28
2018-07-25T17:15:47.420Z,7.17
2018-07-25T17:18:19.688Z,13.10
2018-07-25T17:20:54.715Z,9.05
2018-07-25T17:23:26.990Z,8.65
2018-07-25T17:25:58.517Z,9.85
2018-07-25T17:28:27.616Z,10.48
2018-07-25T17:30:57.242Z,8.48
2018-07-25T17:33:28.903Z,10.03
2018-07-25T17:36:01.712Z,8.53
2018-07-25T17:38:33.128Z,8.48
2018-07-25T17:41:04.390Z,8.80
2018-07-25T17:43:33.549Z,8.25
2018-07-25T17:46:05.900Z,10.13
2018-07-25T17:48:35.321Z,8.13
2018-07-25T17:51:07.565Z,11.33
2018-07-25T17:53:38.389Z,8.73
2018-07-25T17:56:08.237Z,7.62
2018-07-25T17:58:39.211Z,10.20
2018-07-25T18:01:09.425Z,8.77
2018-07-25T18:03:39.808Z,8.50
2018-07-25T18:06:10.620Z,8.45
2018-07-25T18:08:40.207Z,12.33
2018-07-25T18:11:12.019Z,9.45
2018-07-25T18:14:49.852Z,8.40
2018-07-25T18:17:21.432Z,9.23
2018-07-25T18:19:57.683Z,8.98
2018-07-25T18:22:36.797Z,8.60
2018-07-25T18:28:38.535Z,9.28
2018-07-25T18:31:07.705Z,8.63
2018-07-25T18:33:38.850Z,6.75
2018-07-25T18:36:08.288Z,12.07
2018-07-25T18:38:37.432Z,10.08
2018-07-25T18:41:08.292Z,23.47
2018-07-25T18:43:39.828Z,25.43
2018-07-25T18:46:09.834Z,18.73
2018-07-25T18:48:41.789Z,24.05
2018-07-25T18:51:17.035Z,11.60
2018-07-25T18:53:48.972Z,8.40
2018-07-25T18:56:18.959Z,13.78
2018-07-25T18:58:48.060Z,6.37
2018-07-25T19:01:19.208Z,6.50
2018-07-25T19:03:53.981Z,7.95
2018-07-25T19:06:25.603Z,6.53
2018-07-25T19:08:54.657Z,8.35
2018-07-25T19:11:24.232Z,6.87
2018-07-25T19:13:58.521Z,11.40
2018-07-25T19:16:28.928Z,7.00
2018-07-25T19:19:01.380Z,12.28
2018-07-25T19:21:32.521Z,8.70
2018-07-25T19:24:02.136Z,9.68
2018-07-25T19:26:38.989Z,7.00
2018-07-25T19:29:09.434Z,5.85
2018-07-25T19:31:40.808Z,6.08
2018-07-25T19:34:13.747Z,9.78
2018-07-25T19:36:45.866Z,9.10
2018-07-25T19:39:16.898Z,10.80
2018-07-25T19:41:46.760Z,7.25
2018-07-25T19:44:18.263Z,9.43
2018-07-25T19:46:50.364Z,6.07
2018-07-25T19:49:19.448Z,7.97
2018-07-25T19:51:54.272Z,6.67
2018-07-25T19:54:23.667Z,6.83
2018-07-25T19:56:56.076Z,10.67
2018-07-25T19:59:26.006Z,7.15
2018-07-25T20:01:55.913Z,9.34
2018-07-25T20:04:25.000Z,9.74
2018-07-25T20:06:57.579Z,9.20
2018-07-25T20:09:28.504Z,10.07
2018-07-25T20:11:59.056Z,7.30
2018-07-25T20:14:33.650Z,7.85
2018-07-25T20:17:04.172Z,6.53
2018-07-25T20:19:36.723Z,7.15
2018-07-25T20:22:07.901Z,6.30
2018-07-25T20:24:41.002Z,6.47
2018-07-25T20:27:10.130Z,7.50
2018-07-25T20:29:43.329Z,6.90
2018-07-25T20:32:16.510Z,10.07
2018-07-25T20:34:46.246Z,11.50
2018-07-25T20:37:18.233Z,6.70
2018-07-25T20:39:50.660Z,8.13
2018-07-25T20:42:23.691Z,8.30
2018-07-25T20:45:03.637Z,9.20
2018-07-25T20:47:34.505Z,16.77
2018-07-25T20:50:05.663Z,7.73
2018-07-25T20:52:35.949Z,16.10
2018-07-25T20:55:09.718Z,6.73
2018-07-25T20:57:38.762Z,9.63
2018-07-25T21:00:07.811Z,9.67
2018-07-25T21:02:37.703Z,11.13
2018-07-25T21:05:27.274Z,13.07
2018-07-25T21:07:56.768Z,8.83
2018-07-25T21:10:27.315Z,9.17
2018-07-25T21:12:58.453Z,9.10
2018-07-25T21:15:27.663Z,16.73
2018-07-25T21:17:57.430Z,11.50
2018-07-25T21:20:26.532Z,9.78
2018-07-25T21:22:55.996Z,8.75
2018-07-25T21:25:26.298Z,10.47
2018-07-25T21:27:55.542Z,12.37
2018-07-25T21:30:27.193Z,7.95
2018-07-25T21:33:01.066Z,7.22
2018-07-25T21:35:33.536Z,7.37
2018-07-25T21:38:04.843Z,8.13
2018-07-25T21:40:35.056Z,9.03
2018-07-25T21:43:04.948Z,12.23
2018-07-25T21:45:36.995Z,8.90
2018-07-25T21:48:09.536Z,8.67
2018-07-25T21:50:42.385Z,10.67
2018-07-25T21:53:12.484Z,11.03
2018-07-25T21:55:43.249Z,10.93
2018-07-25T21:58:13.053Z,16.40
2018-07-25T22:00:48.558Z,10.40
2018-07-25T22:03:18.861Z,11.83
2018-07-25T22:05:49.504Z,7.87
2018-07-25T22:08:19.379Z,13.67
2018-07-25T22:10:50.138Z,17.25
2018-07-25T22:13:20.435Z,13.78
2018-07-25T22:15:50.595Z,10.75
2018-07-25T22:18:20.529Z,12.37
2018-07-25T22:20:50.980Z,7.73
2018-07-25T22:23:20.688Z,12.90
2018-07-25T22:25:50.472Z,15.50
2018-07-25T22:28:20.038Z,13.30
2018-07-25T22:30:49.391Z,14.87
2018-07-25T22:33:19.889Z,14.80
2018-07-25T22:35:52.146Z,14.93
2018-07-25T22:38:22.076Z,17.50
2018-07-25T22:40:51.811Z,8.33
2018-07-25T22:43:21.330Z,7.87
2018-07-25T22:45:53.343Z,9.20
2018-07-25T22:48:23.236Z,15.03
2018-07-25T22:50:55.857Z,8.17
2018-07-25T22:53:25.599Z,9.05
2018-07-25T22:55:54.924Z,12.90
2018-07-25T22:58:24.409Z,9.73
2018-07-25T23:00:54.068Z,13.08
2018-07-25T23:03:23.643Z,10.13
2018-07-25T23:05:53.488Z,10.50
2018-07-25T23:08:23.822Z,11.33
2018-07-25T23:10:53.336Z,10.88
2018-07-25T23:13:22.837Z,10.83
2018-07-25T23:15:53.072Z,12.63
2018-07-25T23:18:22.823Z,9.43
2018-07-25T23:20:52.484Z,12.93
2018-07-25T23:23:22.901Z,12.07
2018-07-25T23:25:55.089Z,11.03
2018-07-25T23:28:27.548Z,9.45
2018-07-25T23:31:01.092Z,12.47
2018-07-25T23:33:31.421Z,10.60
2018-07-25T23:36:00.766Z,10.10
2018-07-25T23:38:30.862Z,12.40
2018-07-25T23:41:00.066Z,13.20
2018-07-25T23:43:29.851Z,19.17
2018-07-25T23:46:00.173Z,10.68
2018-07-25T23:48:29.501Z,11.30
2018-07-25T23:51:00.087Z,13.25
2018-07-25T23:53:29.698Z,10.50
2018-07-25T23:56:00.934Z,13.90
2018-07-25T23:58:30.356Z,12.93
